createdAt,value
2018-12-25T00:00:14.044Z,23.17
2018-12-25T00:00:45.656Z,23.15
2018-12-25T00:01:17.267Z,23.14
2018-12-25T00:01:48.875Z,23.14
2018-12-25T00:02:20.469Z,23.14
2018-12-25T00:02:52.065Z,23.15
2018-12-25T00:03:23.644Z,23.14
2018-12-25T00:03:55.260Z,23.15
2018-12-25T00:04:26.856Z,23.16
2018-12-25T00:04:58.474Z,23.19
2018-12-25T00:05:30.066Z,23.01
2018-12-25T00:06:01.665Z,22.84
2018-12-25T00:06:33.274Z,22.67
2018-12-25T00:07:04.870Z,22.54
2018-12-25T00:07:36.473Z,22.40
2018-12-25T00:08:08.079Z,22.33
2018-12-25T00:08:39.657Z,22.27
2018-12-25T00:09:11.250Z,22.31
2018-12-25T00:09:42.885Z,22.36
2018-12-25T00:10:14.524Z,22.38
2018-12-25T00:10:46.118Z,22.38
2018-12-25T00:11:17.714Z,22.38
2018-12-25T00:11:49.309Z,22.36
2018-12-25T00:12:20.912Z,22.34
2018-12-25T00:12:52.523Z,22.32
2018-12-25T00:13:24.135Z,22.30
2018-12-25T00:13:55.729Z,22.28
2018-12-25T00:14:27.348Z,22.26
2018-12-25T00:14:58.983Z,22.24
2018-12-25T00:15:30.591Z,22.23
2018-12-25T00:16:02.203Z,22.22
2018-12-25T00:16:33.795Z,22.21
2018-12-25T00:17:05.386Z,22.19
2018-12-25T00:17:36.978Z,22.18
2018-12-25T00:18:08.573Z,22.16
2018-12-25T00:18:40.173Z,22.16
2018-12-25T00:19:11.758Z,22.14
2018-12-25T00:19:43.349Z,22.14
2018-12-25T00:20:14.970Z,22.10
2018-12-25T00:20:46.567Z,22.09
2018-12-25T00:21:18.167Z,22.08
2018-12-25T00:21:49.748Z,22.08
2018-12-25T00:22:21.350Z,22.07
2018-12-25T00:22:53.106Z,22.05
2018-12-25T00:23:24.712Z,22.05
2018-12-25T00:23:56.313Z,22.03
2018-12-25T00:24:27.925Z,22.01
2018-12-25T00:24:59.585Z,22.01
2018-12-25T00:25:31.181Z,22.00
2018-12-25T00:26:02.788Z,21.98
2018-12-25T00:26:34.374Z,21.97
2018-12-25T00:27:06.017Z,21.94
2018-12-25T00:27:37.616Z,21.95
2018-12-25T00:28:09.201Z,21.92
2018-12-25T00:28:40.798Z,21.92
2018-12-25T00:29:12.394Z,21.90
2018-12-25T00:29:43.990Z,21.90
2018-12-25T00:30:15.631Z,21.89
2018-12-25T00:30:47.225Z,21.87
2018-12-25T00:31:18.937Z,21.86
2018-12-25T00:31:50.520Z,21.84
2018-12-25T00:32:22.100Z,21.84
2018-12-25T00:32:53.708Z,21.84
2018-12-25T00:33:25.319Z,21.81
2018-12-25T00:33:56.917Z,21.81
2018-12-25T00:34:28.874Z,21.80
2018-12-25T00:35:00.801Z,21.78
2018-12-25T00:35:32.423Z,21.78
2018-12-25T00:36:04.032Z,21.77
2018-12-25T00:36:35.640Z,21.76
2018-12-25T00:37:07.299Z,21.74
2018-12-25T00:37:38.899Z,21.74
2018-12-25T00:38:10.498Z,21.72
2018-12-25T00:38:42.097Z,21.72
2018-12-25T00:39:13.693Z,21.71
2018-12-25T00:39:45.290Z,21.71
2018-12-25T00:40:16.900Z,21.70
2018-12-25T00:40:48.508Z,21.69
2018-12-25T00:41:20.115Z,21.68
2018-12-25T00:41:51.700Z,21.68
2018-12-25T00:42:23.293Z,21.68
2018-12-25T00:42:54.886Z,21.68
2018-12-25T00:43:26.497Z,21.67
2018-12-25T00:43:58.144Z,21.67
2018-12-25T00:44:29.738Z,21.66
2018-12-25T00:45:01.345Z,21.66
2018-12-25T00:45:32.975Z,21.67
2018-12-25T00:46:04.569Z,21.67
2018-12-25T00:46:36.166Z,21.68
2018-12-25T00:47:07.780Z,21.69
2018-12-25T00:47:39.439Z,21.70
2018-12-25T00:48:11.039Z,21.71
2018-12-25T00:48:42.634Z,21.73
2018-12-25T00:49:14.901Z,21.74
2018-12-25T00:49:45.882Z,21.75
2018-12-25T00:50:17.795Z,21.77
2018-12-25T00:50:49.393Z,21.79
2018-12-25T00:51:20.989Z,21.82
2018-12-25T00:51:52.591Z,21.85
2018-12-25T00:52:24.204Z,21.86
2018-12-25T00:52:55.797Z,21.89
2018-12-25T00:53:27.412Z,21.91
2018-12-25T00:53:59.013Z,21.92
2018-12-25T00:54:30.605Z,21.93
2018-12-25T00:55:02.197Z,21.78
2018-12-25T00:55:33.827Z,21.94
2018-12-25T00:56:05.422Z,21.94
2018-12-25T00:56:37.027Z,21.95
2018-12-25T00:57:08.626Z,21.94
2018-12-25T00:57:40.236Z,21.95
2018-12-25T00:58:11.839Z,21.94
2018-12-25T00:58:43.444Z,21.92
2018-12-25T00:59:15.041Z,21.91
2018-12-25T00:59:46.633Z,21.89
2018-12-25T01:00:18.244Z,21.87
2018-12-25T01:00:49.869Z,21.85
2018-12-25T01:01:21.483Z,21.83
2018-12-25T01:01:53.092Z,21.81
2018-12-25T01:02:24.689Z,21.79
2018-12-25T01:02:56.290Z,21.79
2018-12-25T01:03:28.331Z,21.77
2018-12-25T01:03:59.978Z,21.76
2018-12-25T01:04:31.873Z,21.75
2018-12-25T01:05:04.113Z,21.73
2018-12-25T01:05:36.617Z,21.71
2018-12-25T01:06:08.154Z,21.70
2018-12-25T01:06:39.754Z,21.69
2018-12-25T01:07:11.351Z,21.69
2018-12-25T01:07:42.964Z,21.69
2018-12-25T01:08:14.562Z,21.69
2018-12-25T01:08:46.153Z,21.69
2018-12-25T01:09:17.749Z,21.70
2018-12-25T01:09:49.346Z,21.71
2018-12-25T01:10:20.952Z,21.71
2018-12-25T01:10:52.574Z,21.72
2018-12-25T01:11:24.171Z,21.75
2018-12-25T01:11:55.782Z,21.61
2018-12-25T01:12:27.367Z,21.78
2018-12-25T01:12:58.962Z,21.77
2018-12-25T01:13:30.553Z,21.79
2018-12-25T01:14:02.161Z,21.80
2018-12-25T01:14:33.771Z,21.73
2018-12-25T01:15:05.380Z,21.82
2018-12-25T01:15:37.480Z,21.84
2018-12-25T01:16:09.101Z,21.87
2018-12-25T01:16:40.694Z,21.89
2018-12-25T01:17:12.286Z,21.91
2018-12-25T01:17:43.896Z,21.93
2018-12-25T01:18:15.497Z,21.95
2018-12-25T01:18:47.106Z,21.96
2018-12-25T01:19:23.325Z,21.96
2018-12-25T01:19:50.333Z,21.97
2018-12-25T01:20:21.925Z,21.97
2018-12-25T01:20:53.555Z,21.98
2018-12-25T01:21:25.172Z,22.00
2018-12-25T01:21:56.780Z,21.99
2018-12-25T01:22:28.377Z,21.99
2018-12-25T01:22:59.988Z,22.00
2018-12-25T01:23:31.586Z,22.00
2018-12-25T01:24:03.198Z,22.00
2018-12-25T01:24:34.812Z,22.00
2018-12-25T01:25:06.396Z,22.00
2018-12-25T01:25:38.006Z,22.00
2018-12-25T01:26:09.643Z,22.00
2018-12-25T01:26:41.242Z,21.99
2018-12-25T01:27:12.838Z,21.99
2018-12-25T01:27:44.448Z,21.98
2018-12-25T01:28:16.039Z,21.98
2018-12-25T01:28:47.652Z,21.98
2018-12-25T01:29:19.245Z,21.98
2018-12-25T01:29:50.859Z,21.98
2018-12-25T01:30:22.444Z,21.96
2018-12-25T01:30:54.076Z,21.96
2018-12-25T01:31:25.669Z,21.95
2018-12-25T01:31:57.280Z,21.95
2018-12-25T01:32:28.868Z,21.94
2018-12-25T01:33:00.473Z,21.95
2018-12-25T01:33:32.070Z,21.96
2018-12-25T01:34:03.670Z,21.96
2018-12-25T01:34:35.394Z,21.95
2018-12-25T01:35:06.996Z,21.95
2018-12-25T01:35:38.592Z,21.94
2018-12-25T01:36:10.233Z,21.94
2018-12-25T01:36:41.834Z,21.93
2018-12-25T01:37:13.420Z,21.93
2018-12-25T01:37:45.030Z,21.91
2018-12-25T01:38:16.640Z,21.91
2018-12-25T01:38:48.236Z,21.94
2018-12-25T01:39:19.835Z,21.95
2018-12-25T01:39:51.420Z,21.96
2018-12-25T01:40:23.019Z,21.97
2018-12-25T01:40:54.623Z,21.98
2018-12-25T01:41:26.212Z,21.98
2018-12-25T01:41:57.824Z,21.99
2018-12-25T01:42:29.424Z,21.99
2018-12-25T01:43:01.031Z,21.97
2018-12-25T01:43:32.616Z,21.97
2018-12-25T01:44:04.223Z,21.96
2018-12-25T01:44:35.818Z,21.96
2018-12-25T01:45:07.420Z,21.95
2018-12-25T01:45:39.019Z,21.94
2018-12-25T01:46:10.639Z,21.95
2018-12-25T01:46:42.243Z,21.94
2018-12-25T01:47:13.842Z,21.96
2018-12-25T01:47:45.451Z,21.96
2018-12-25T01:48:17.059Z,21.97
2018-12-25T01:48:48.667Z,21.96
2018-12-25T01:49:20.280Z,21.98
2018-12-25T01:49:51.878Z,22.02
2018-12-25T01:50:23.471Z,21.96
2018-12-25T01:50:55.066Z,21.89
2018-12-25T01:51:26.676Z,21.81
2018-12-25T01:51:58.270Z,21.77
2018-12-25T01:52:29.861Z,21.71
2018-12-25T01:53:01.464Z,21.66
2018-12-25T01:53:33.075Z,21.65
2018-12-25T01:54:04.679Z,21.66
2018-12-25T01:54:36.283Z,21.66
2018-12-25T01:55:07.892Z,21.66
2018-12-25T01:55:39.486Z,21.66
2018-12-25T01:56:11.102Z,21.67
2018-12-25T01:56:42.688Z,21.66
2018-12-25T01:57:14.292Z,21.65
2018-12-25T01:57:45.899Z,21.65
2018-12-25T01:58:17.508Z,21.65
2018-12-25T01:58:49.116Z,21.64
2018-12-25T01:59:20.719Z,21.63
2018-12-25T01:59:52.318Z,21.63
2018-12-25T02:00:23.923Z,21.61
2018-12-25T02:00:55.536Z,21.61
2018-12-25T02:01:27.148Z,21.59
2018-12-25T02:01:58.753Z,21.42
2018-12-25T02:02:30.353Z,21.59
2018-12-25T02:03:01.967Z,21.57
2018-12-25T02:03:33.615Z,21.58
2018-12-25T02:04:05.214Z,21.57
2018-12-25T02:04:36.824Z,21.55
2018-12-25T02:05:08.431Z,21.55
2018-12-25T02:05:40.040Z,21.54
2018-12-25T02:06:11.628Z,21.54
2018-12-25T02:06:43.249Z,21.53
2018-12-25T02:07:14.841Z,21.51
2018-12-25T02:07:46.459Z,21.48
2018-12-25T02:08:18.054Z,21.50
2018-12-25T02:08:49.664Z,21.49
2018-12-25T02:09:21.262Z,21.48
2018-12-25T02:09:52.843Z,21.47
2018-12-25T02:10:24.443Z,21.46
2018-12-25T02:10:56.052Z,21.45
2018-12-25T02:11:27.678Z,21.44
2018-12-25T02:11:59.270Z,21.44
2018-12-25T02:12:30.879Z,21.42
2018-12-25T02:13:02.479Z,21.42
2018-12-25T02:13:34.087Z,21.41
2018-12-25T02:14:05.686Z,21.41
2018-12-25T02:14:37.295Z,21.39
2018-12-25T02:15:08.898Z,21.39
2018-12-25T02:15:40.489Z,21.38
2018-12-25T02:16:12.195Z,21.37
2018-12-25T02:16:43.828Z,21.36
2018-12-25T02:17:15.411Z,21.36
2018-12-25T02:17:47.004Z,21.35
2018-12-25T02:18:18.598Z,21.34
2018-12-25T02:18:50.194Z,21.34
2018-12-25T02:19:21.790Z,21.33
2018-12-25T02:19:53.393Z,21.33
2018-12-25T02:20:25.000Z,21.31
2018-12-25T02:20:56.604Z,21.31
2018-12-25T02:21:28.244Z,21.30
2018-12-25T02:21:59.837Z,21.29
2018-12-25T02:22:31.439Z,21.29
2018-12-25T02:23:03.033Z,21.28
2018-12-25T02:23:34.644Z,21.28
2018-12-25T02:24:06.242Z,21.28
2018-12-25T02:24:37.824Z,21.28
2018-12-25T02:25:09.418Z,21.28
2018-12-25T02:25:41.004Z,21.27
2018-12-25T02:26:12.600Z,21.28
2018-12-25T02:26:44.219Z,21.28
2018-12-25T02:27:15.814Z,21.27
2018-12-25T02:27:47.421Z,21.28
2018-12-25T02:28:19.027Z,21.29
2018-12-25T02:28:50.625Z,21.29
2018-12-25T02:29:22.231Z,21.30
2018-12-25T02:29:53.835Z,21.31
2018-12-25T02:30:25.449Z,21.33
2018-12-25T02:30:57.056Z,21.33
2018-12-25T02:31:28.653Z,21.36
2018-12-25T02:32:00.270Z,21.36
2018-12-25T02:32:31.881Z,21.38
2018-12-25T02:33:03.517Z,21.40
2018-12-25T02:33:35.121Z,21.43
2018-12-25T02:34:06.720Z,21.45
2018-12-25T02:34:38.332Z,21.47
2018-12-25T02:35:09.930Z,21.47
2018-12-25T02:35:41.526Z,21.50
2018-12-25T02:36:13.146Z,21.51
2018-12-25T02:36:44.781Z,21.53
2018-12-25T02:37:16.360Z,21.55
2018-12-25T02:37:47.963Z,21.58
2018-12-25T02:38:19.558Z,21.60
2018-12-25T02:38:51.149Z,21.61
2018-12-25T02:39:22.757Z,21.62
2018-12-25T02:39:54.369Z,21.63
2018-12-25T02:40:25.983Z,21.64
2018-12-25T02:40:57.568Z,21.64
2018-12-25T02:41:29.162Z,21.64
2018-12-25T02:42:00.804Z,21.66
2018-12-25T02:42:32.388Z,21.67
2018-12-25T02:43:03.985Z,21.69
2018-12-25T02:43:35.578Z,21.69
2018-12-25T02:44:07.170Z,21.69
2018-12-25T02:44:38.768Z,21.70
2018-12-25T02:45:10.373Z,21.71
2018-12-25T02:45:41.963Z,21.71
2018-12-25T02:46:13.564Z,21.73
2018-12-25T02:46:45.182Z,21.73
2018-12-25T02:47:16.789Z,21.74
2018-12-25T02:47:48.396Z,21.74
2018-12-25T02:48:20.007Z,21.77
2018-12-25T02:48:51.606Z,21.80
2018-12-25T02:49:23.216Z,21.81
2018-12-25T02:49:54.826Z,21.84
2018-12-25T02:50:26.409Z,21.85
2018-12-25T02:50:58.002Z,21.86
2018-12-25T02:51:29.595Z,21.87
2018-12-25T02:52:01.214Z,21.88
2018-12-25T02:52:32.806Z,21.89
2018-12-25T02:53:04.410Z,21.88
2018-12-25T02:53:35.993Z,21.88
2018-12-25T02:54:07.586Z,21.89
2018-12-25T02:54:39.200Z,21.89
2018-12-25T02:55:10.795Z,21.90
2018-12-25T02:55:42.390Z,21.88
2018-12-25T02:56:13.982Z,21.87
2018-12-25T02:56:45.597Z,21.87
2018-12-25T02:57:17.209Z,21.87
2018-12-25T02:57:48.821Z,21.90
2018-12-25T02:58:20.433Z,21.92
2018-12-25T02:58:52.051Z,21.95
2018-12-25T02:59:23.646Z,21.97
2018-12-25T02:59:55.241Z,21.99
2018-12-25T03:00:26.856Z,21.99
2018-12-25T03:00:58.461Z,21.83
2018-12-25T03:01:30.073Z,22.00
2018-12-25T03:02:01.684Z,21.98
2018-12-25T03:02:33.291Z,21.99
2018-12-25T03:03:04.878Z,22.00
2018-12-25T03:03:36.623Z,21.99
2018-12-25T03:04:08.276Z,21.98
2018-12-25T03:04:39.891Z,21.98
2018-12-25T03:05:11.840Z,21.97
2018-12-25T03:05:43.428Z,21.97
2018-12-25T03:06:15.032Z,21.96
2018-12-25T03:06:46.652Z,21.96
2018-12-25T03:07:18.288Z,21.94
2018-12-25T03:07:49.893Z,21.95
2018-12-25T03:08:21.506Z,21.94
2018-12-25T03:08:53.120Z,21.95
2018-12-25T03:09:24.715Z,21.96
2018-12-25T03:09:56.310Z,21.96
2018-12-25T03:10:27.887Z,21.95
2018-12-25T03:10:59.486Z,21.94
2018-12-25T03:11:31.082Z,21.94
2018-12-25T03:12:02.677Z,21.93
2018-12-25T03:12:34.302Z,21.91
2018-12-25T03:13:05.897Z,21.90
2018-12-25T03:13:37.508Z,21.89
2018-12-25T03:14:09.113Z,21.87
2018-12-25T03:14:40.715Z,21.84
2018-12-25T03:15:12.319Z,21.81
2018-12-25T03:15:43.924Z,21.81
2018-12-25T03:16:15.537Z,21.79
2018-12-25T03:16:47.136Z,21.78
2018-12-25T03:17:18.769Z,21.76
2018-12-25T03:17:50.370Z,21.75
2018-12-25T03:18:21.980Z,21.73
2018-12-25T03:18:53.564Z,21.72
2018-12-25T03:19:25.177Z,21.73
2018-12-25T03:20:00.041Z,21.71
2018-12-25T03:20:28.430Z,21.71
2018-12-25T03:21:00.035Z,21.71
2018-12-25T03:21:31.645Z,21.71
2018-12-25T03:22:03.238Z,21.70
2018-12-25T03:22:34.858Z,21.69
2018-12-25T03:23:06.459Z,21.66
2018-12-25T03:23:38.054Z,21.66
2018-12-25T03:24:09.639Z,21.65
2018-12-25T03:24:41.249Z,21.64
2018-12-25T03:25:12.862Z,21.65
2018-12-25T03:25:44.458Z,21.64
2018-12-25T03:26:16.052Z,21.62
2018-12-25T03:26:47.648Z,21.62
2018-12-25T03:27:19.260Z,21.61
2018-12-25T03:27:50.874Z,21.60
2018-12-25T03:28:22.461Z,21.57
2018-12-25T03:28:54.048Z,21.52
2018-12-25T03:29:25.647Z,21.52
2018-12-25T03:29:57.235Z,21.50
2018-12-25T03:30:28.842Z,21.50
2018-12-25T03:31:00.451Z,21.48
2018-12-25T03:31:32.060Z,21.46
2018-12-25T03:32:03.675Z,21.44
2018-12-25T03:32:35.313Z,21.42
2018-12-25T03:33:06.963Z,21.41
2018-12-25T03:33:38.562Z,21.39
2018-12-25T03:34:10.167Z,21.38
2018-12-25T03:34:41.763Z,21.37
2018-12-25T03:35:13.362Z,21.36
2018-12-25T03:35:44.969Z,21.34
2018-12-25T03:36:16.567Z,21.33
2018-12-25T03:36:48.162Z,21.32
2018-12-25T03:37:19.768Z,21.31
2018-12-25T03:37:51.407Z,21.30
2018-12-25T03:38:23.002Z,21.29
2018-12-25T03:38:54.622Z,21.27
2018-12-25T03:39:26.222Z,21.29
2018-12-25T03:39:57.809Z,21.30
2018-12-25T03:40:29.401Z,21.30
2018-12-25T03:41:00.998Z,21.31
2018-12-25T03:41:32.588Z,21.31
2018-12-25T03:42:04.188Z,21.31
2018-12-25T03:42:35.814Z,21.31
2018-12-25T03:43:07.406Z,21.30
2018-12-25T03:43:39.001Z,21.31
2018-12-25T03:44:10.607Z,21.30
2018-12-25T03:44:42.241Z,21.30
2018-12-25T03:45:13.827Z,21.28
2018-12-25T03:45:45.443Z,21.29
2018-12-25T03:46:17.039Z,21.28
2018-12-25T03:46:48.633Z,21.28
2018-12-25T03:47:20.236Z,21.27
2018-12-25T03:47:51.877Z,21.24
2018-12-25T03:48:23.483Z,21.25
2018-12-25T03:48:55.086Z,21.26
2018-12-25T03:49:26.666Z,21.26
2018-12-25T03:49:58.364Z,21.26
2018-12-25T03:50:29.964Z,21.27
2018-12-25T03:51:01.544Z,21.27
2018-12-25T03:51:33.149Z,21.28
2018-12-25T03:52:04.750Z,21.29
2018-12-25T03:52:36.362Z,21.29
2018-12-25T03:53:07.962Z,21.28
2018-12-25T03:53:39.572Z,21.29
2018-12-25T03:54:11.175Z,21.30
2018-12-25T03:54:42.786Z,21.33
2018-12-25T03:55:14.409Z,21.37
2018-12-25T03:55:46.011Z,21.41
2018-12-25T03:56:17.610Z,21.43
2018-12-25T03:56:49.206Z,21.44
2018-12-25T03:57:20.820Z,21.46
2018-12-25T03:57:52.456Z,21.49
2018-12-25T03:58:24.068Z,21.51
2018-12-25T03:58:55.671Z,21.53
2018-12-25T03:59:27.264Z,21.58
2018-12-25T03:59:58.859Z,21.58
2018-12-25T04:00:30.445Z,21.59
2018-12-25T04:01:02.028Z,21.62
2018-12-25T04:01:33.623Z,21.63
2018-12-25T04:02:05.228Z,21.64
2018-12-25T04:02:36.821Z,21.64
2018-12-25T04:03:08.456Z,21.68
2018-12-25T04:03:40.065Z,21.71
2018-12-25T04:04:11.677Z,21.74
2018-12-25T04:04:43.274Z,21.75
2018-12-25T04:05:14.884Z,21.75
2018-12-25T04:05:46.486Z,21.74
2018-12-25T04:06:18.072Z,21.74
2018-12-25T04:06:49.670Z,21.72
2018-12-25T04:07:21.276Z,21.72
2018-12-25T04:07:52.896Z,21.70
2018-12-25T04:08:24.509Z,21.70
2018-12-25T04:08:56.142Z,21.69
2018-12-25T04:09:27.754Z,21.67
2018-12-25T04:09:59.463Z,21.67
2018-12-25T04:10:31.076Z,21.66
2018-12-25T04:11:02.678Z,21.66
2018-12-25T04:11:34.299Z,21.68
2018-12-25T04:12:05.893Z,21.67
2018-12-25T04:12:37.491Z,21.68
2018-12-25T04:13:09.230Z,21.68
2018-12-25T04:13:40.780Z,21.69
2018-12-25T04:14:12.365Z,21.70
2018-12-25T04:14:43.971Z,21.70
2018-12-25T04:15:15.573Z,21.70
2018-12-25T04:15:47.190Z,21.70
2018-12-25T04:16:18.799Z,21.72
2018-12-25T04:16:50.398Z,21.71
2018-12-25T04:17:22.012Z,21.71
2018-12-25T04:17:53.625Z,21.72
2018-12-25T04:18:25.225Z,21.72
2018-12-25T04:18:56.821Z,21.73
2018-12-25T04:19:28.424Z,21.72
2018-12-25T04:20:00.008Z,21.72
2018-12-25T04:20:31.610Z,21.72
2018-12-25T04:21:03.213Z,21.72
2018-12-25T04:21:34.806Z,21.72
2018-12-25T04:22:06.403Z,21.73
2018-12-25T04:22:38.021Z,21.73
2018-12-25T04:23:09.649Z,21.62
2018-12-25T04:23:41.246Z,21.72
2018-12-25T04:24:12.855Z,21.71
2018-12-25T04:24:44.449Z,21.72
2018-12-25T04:25:16.042Z,21.70
2018-12-25T04:25:47.638Z,21.71
2018-12-25T04:26:19.239Z,21.72
2018-12-25T04:26:50.834Z,21.72
2018-12-25T04:27:22.436Z,21.72
2018-12-25T04:27:54.068Z,21.72
2018-12-25T04:28:25.670Z,21.72
2018-12-25T04:28:57.262Z,21.70
2018-12-25T04:29:28.877Z,21.71
2018-12-25T04:30:00.481Z,21.71
2018-12-25T04:30:32.096Z,21.70
2018-12-25T04:31:03.722Z,21.71
2018-12-25T04:31:35.325Z,21.71
2018-12-25T04:32:06.909Z,21.71
2018-12-25T04:32:38.496Z,21.72
2018-12-25T04:33:10.129Z,21.72
2018-12-25T04:33:41.725Z,21.71
2018-12-25T04:34:13.318Z,21.71
2018-12-25T04:34:44.910Z,21.71
2018-12-25T04:35:16.510Z,21.69
2018-12-25T04:35:48.115Z,21.70
2018-12-25T04:36:19.707Z,21.69
2018-12-25T04:36:51.318Z,21.67
2018-12-25T04:37:22.914Z,21.68
2018-12-25T04:37:54.504Z,21.68
2018-12-25T04:38:26.093Z,21.67
2018-12-25T04:38:58.705Z,21.66
2018-12-25T04:39:30.299Z,21.65
2018-12-25T04:40:01.895Z,21.64
2018-12-25T04:40:33.512Z,21.63
2018-12-25T04:41:05.106Z,21.61
2018-12-25T04:41:36.706Z,21.61
2018-12-25T04:42:08.301Z,21.58
2018-12-25T04:42:39.911Z,21.55
2018-12-25T04:43:11.557Z,21.53
2018-12-25T04:43:43.149Z,21.51
2018-12-25T04:44:14.741Z,21.53
2018-12-25T04:44:46.340Z,21.53
2018-12-25T04:45:17.934Z,21.54
2018-12-25T04:45:49.541Z,21.55
2018-12-25T04:46:21.142Z,21.57
2018-12-25T04:46:52.747Z,21.57
2018-12-25T04:47:24.341Z,21.57
2018-12-25T04:47:55.924Z,21.57
2018-12-25T04:48:27.561Z,21.55
2018-12-25T04:48:59.158Z,21.54
2018-12-25T04:49:30.766Z,21.51
2018-12-25T04:50:02.447Z,21.49
2018-12-25T04:50:34.046Z,21.50
2018-12-25T04:51:05.651Z,21.49
2018-12-25T04:51:37.245Z,21.49
2018-12-25T04:52:08.849Z,21.47
2018-12-25T04:52:40.447Z,21.45
2018-12-25T04:53:12.068Z,21.42
2018-12-25T04:53:43.700Z,21.41
2018-12-25T04:54:15.301Z,21.39
2018-12-25T04:54:46.894Z,21.37
2018-12-25T04:55:18.478Z,21.36
2018-12-25T04:55:50.077Z,21.33
2018-12-25T04:56:21.683Z,21.32
2018-12-25T04:56:53.277Z,21.30
2018-12-25T04:57:24.861Z,21.28
2018-12-25T04:57:56.444Z,21.26
2018-12-25T04:58:28.055Z,21.25
2018-12-25T04:58:59.654Z,21.24
2018-12-25T04:59:31.249Z,21.23
2018-12-25T05:00:02.855Z,21.21
2018-12-25T05:00:34.440Z,21.04
2018-12-25T05:01:06.047Z,21.19
2018-12-25T05:01:37.908Z,21.18
2018-12-25T05:02:09.833Z,21.18
2018-12-25T05:02:41.622Z,21.16
2018-12-25T05:03:13.584Z,21.16
2018-12-25T05:03:45.285Z,21.14
2018-12-25T05:04:17.236Z,21.13
2018-12-25T05:04:49.271Z,21.14
2018-12-25T05:05:21.711Z,21.14
2018-12-25T05:05:53.289Z,21.14
2018-12-25T05:06:24.872Z,21.13
2018-12-25T05:06:56.473Z,21.11
2018-12-25T05:07:28.084Z,21.10
2018-12-25T05:07:59.683Z,21.09
2018-12-25T05:08:31.296Z,21.07
2018-12-25T05:09:02.933Z,21.07
2018-12-25T05:09:34.534Z,21.06
2018-12-25T05:10:06.143Z,21.05
2018-12-25T05:10:37.738Z,21.04
2018-12-25T05:11:09.338Z,21.03
2018-12-25T05:11:40.945Z,21.02
2018-12-25T05:12:12.528Z,21.01
2018-12-25T05:12:44.121Z,21.01
2018-12-25T05:13:15.737Z,21.01
2018-12-25T05:13:47.365Z,21.00
2018-12-25T05:14:18.960Z,21.00
2018-12-25T05:14:50.619Z,20.99
2018-12-25T05:15:22.220Z,21.00
2018-12-25T05:15:53.817Z,21.00
2018-12-25T05:16:25.405Z,20.98
2018-12-25T05:16:56.998Z,21.00
2018-12-25T05:17:28.580Z,21.01
2018-12-25T05:18:00.178Z,21.00
2018-12-25T05:18:31.792Z,20.99
2018-12-25T05:19:03.437Z,21.00
2018-12-25T05:19:35.052Z,21.00
2018-12-25T05:20:06.649Z,21.00
2018-12-25T05:20:38.282Z,20.99
2018-12-25T05:21:09.880Z,21.00
2018-12-25T05:21:41.487Z,21.00
2018-12-25T05:22:13.097Z,21.02
2018-12-25T05:22:44.708Z,21.02
2018-12-25T05:23:16.302Z,21.03
2018-12-25T05:23:47.922Z,21.04
2018-12-25T05:24:19.518Z,21.05
2018-12-25T05:24:51.109Z,21.08
2018-12-25T05:25:22.703Z,21.11
2018-12-25T05:25:54.299Z,21.14
2018-12-25T05:26:25.903Z,21.17
2018-12-25T05:26:57.508Z,21.18
2018-12-25T05:27:29.110Z,21.19
2018-12-25T05:28:00.705Z,21.21
2018-12-25T05:28:32.288Z,21.07
2018-12-25T05:29:03.924Z,21.25
2018-12-25T05:29:35.537Z,21.26
2018-12-25T05:30:07.134Z,21.28
2018-12-25T05:30:38.743Z,21.28
2018-12-25T05:31:10.355Z,21.31
2018-12-25T05:31:41.954Z,21.36
2018-12-25T05:32:13.546Z,21.41
2018-12-25T05:32:45.151Z,21.36
2018-12-25T05:33:16.760Z,21.50
2018-12-25T05:33:48.357Z,21.54
2018-12-25T05:34:19.974Z,21.58
2018-12-25T05:34:51.556Z,21.53
2018-12-25T05:35:23.160Z,21.62
2018-12-25T05:35:54.772Z,21.65
2018-12-25T05:36:26.367Z,21.67
2018-12-25T05:36:57.976Z,21.70
2018-12-25T05:37:29.574Z,21.72
2018-12-25T05:38:01.183Z,21.75
2018-12-25T05:38:32.788Z,21.77
2018-12-25T05:39:04.415Z,21.80
2018-12-25T05:39:36.027Z,21.82
2018-12-25T05:40:07.631Z,21.83
2018-12-25T05:40:39.229Z,21.85
2018-12-25T05:41:10.811Z,21.86
2018-12-25T05:41:42.391Z,21.88
2018-12-25T05:42:13.989Z,21.90
2018-12-25T05:42:45.580Z,21.91
2018-12-25T05:43:17.183Z,21.90
2018-12-25T05:43:48.792Z,21.89
2018-12-25T05:44:20.436Z,21.88
2018-12-25T05:44:52.034Z,21.87
2018-12-25T05:45:23.644Z,21.84
2018-12-25T05:45:55.250Z,21.84
2018-12-25T05:46:26.856Z,21.83
2018-12-25T05:46:58.460Z,21.83
2018-12-25T05:47:30.063Z,21.81
2018-12-25T05:48:01.658Z,21.80
2018-12-25T05:48:33.250Z,21.81
2018-12-25T05:49:04.894Z,21.81
2018-12-25T05:49:36.503Z,21.81
2018-12-25T05:50:08.101Z,21.81
2018-12-25T05:50:46.610Z,21.79
2018-12-25T05:51:11.386Z,21.81
2018-12-25T05:51:42.986Z,21.81
2018-12-25T05:52:14.583Z,21.81
2018-12-25T05:52:46.182Z,21.81
2018-12-25T05:53:17.764Z,21.81
2018-12-25T05:53:49.357Z,21.80
2018-12-25T05:54:20.977Z,21.80
2018-12-25T05:54:52.583Z,21.79
2018-12-25T05:55:24.162Z,21.78
2018-12-25T05:55:55.768Z,21.80
2018-12-25T05:56:27.375Z,21.82
2018-12-25T05:56:58.979Z,21.82
2018-12-25T05:57:30.579Z,21.82
2018-12-25T05:58:02.173Z,21.81
2018-12-25T05:58:33.786Z,21.80
2018-12-25T05:59:05.402Z,21.80
2018-12-25T05:59:37.026Z,21.79
2018-12-25T06:00:08.632Z,21.78
2018-12-25T06:00:40.243Z,21.77
2018-12-25T06:01:11.837Z,21.76
2018-12-25T06:01:43.444Z,21.76
2018-12-25T06:02:15.051Z,21.75
2018-12-25T06:02:46.646Z,21.76
2018-12-25T06:03:18.238Z,21.75
2018-12-25T06:03:49.848Z,21.75
2018-12-25T06:04:21.488Z,21.75
2018-12-25T06:04:53.104Z,21.73
2018-12-25T06:05:24.702Z,21.73
2018-12-25T06:05:56.297Z,21.72
2018-12-25T06:06:27.889Z,21.71
2018-12-25T06:06:59.491Z,21.70
2018-12-25T06:07:31.103Z,21.70
2018-12-25T06:08:02.711Z,21.69
2018-12-25T06:08:34.332Z,21.68
2018-12-25T06:09:05.955Z,21.66
2018-12-25T06:09:37.592Z,21.66
2018-12-25T06:10:09.190Z,21.65
2018-12-25T06:10:40.785Z,21.64
2018-12-25T06:11:12.387Z,21.62
2018-12-25T06:11:43.986Z,21.61
2018-12-25T06:12:15.578Z,21.61
2018-12-25T06:12:47.183Z,21.60
2018-12-25T06:13:18.781Z,21.59
2018-12-25T06:13:50.374Z,21.57
2018-12-25T06:14:21.997Z,21.56
2018-12-25T06:14:53.603Z,21.53
2018-12-25T06:15:25.197Z,21.52
2018-12-25T06:15:56.785Z,21.52
2018-12-25T06:16:28.403Z,21.51
2018-12-25T06:17:00.103Z,21.50
2018-12-25T06:17:31.716Z,21.49
2018-12-25T06:18:03.313Z,21.48
2018-12-25T06:18:34.925Z,21.46
2018-12-25T06:19:06.525Z,21.45
2018-12-25T06:19:38.146Z,21.45
2018-12-25T06:20:09.756Z,21.43
2018-12-25T06:20:41.365Z,21.43
2018-12-25T06:21:12.951Z,21.43
2018-12-25T06:21:44.546Z,21.42
2018-12-25T06:22:16.156Z,21.41
2018-12-25T06:22:47.809Z,21.38
2018-12-25T06:23:19.405Z,21.38
2018-12-25T06:23:50.998Z,21.37
2018-12-25T06:24:22.579Z,21.36
2018-12-25T06:24:54.198Z,21.34
2018-12-25T06:25:25.789Z,21.33
2018-12-25T06:25:57.401Z,21.32
2018-12-25T06:26:28.988Z,21.30
2018-12-25T06:27:00.586Z,21.27
2018-12-25T06:27:32.197Z,21.27
2018-12-25T06:28:03.808Z,21.27
2018-12-25T06:28:35.420Z,21.25
2018-12-25T06:29:07.014Z,21.23
2018-12-25T06:29:38.620Z,21.21
2018-12-25T06:30:10.219Z,21.20
2018-12-25T06:30:41.814Z,21.19
2018-12-25T06:31:13.406Z,21.18
2018-12-25T06:31:45.008Z,21.17
2018-12-25T06:32:16.616Z,21.15
2018-12-25T06:32:48.214Z,21.14
2018-12-25T06:33:19.806Z,21.13
2018-12-25T06:33:51.407Z,21.12
2018-12-25T06:34:23.004Z,21.11
2018-12-25T06:34:54.630Z,21.10
2018-12-25T06:35:26.225Z,21.09
2018-12-25T06:35:57.832Z,21.09
2018-12-25T06:36:29.443Z,21.08
2018-12-25T06:37:01.037Z,21.08
2018-12-25T06:37:32.624Z,21.07
2018-12-25T06:38:04.232Z,21.07
2018-12-25T06:38:35.845Z,21.07
2018-12-25T06:39:07.442Z,21.06
2018-12-25T06:39:39.062Z,21.05
2018-12-25T06:40:10.695Z,21.04
2018-12-25T06:40:42.294Z,21.04
2018-12-25T06:41:13.885Z,20.88
2018-12-25T06:41:45.477Z,21.04
2018-12-25T06:42:17.084Z,21.04
2018-12-25T06:42:48.692Z,21.03
2018-12-25T06:43:20.301Z,21.04
2018-12-25T06:43:51.912Z,21.06
2018-12-25T06:44:23.510Z,21.07
2018-12-25T06:44:55.129Z,21.10
2018-12-25T06:45:26.722Z,21.13
2018-12-25T06:45:58.322Z,21.15
2018-12-25T06:46:29.931Z,21.16
2018-12-25T06:47:01.521Z,21.17